createdAt,value
2022-08-26T00:02:30.764Z,398.09
2022-08-26T00:07:37.910Z,398.45
2022-08-26T00:12:45.091Z,398.96
2022-08-26T00:17:52.368Z,398.74
2022-08-26T00:22:59.580Z,398.54
2022-08-26T00:28:06.794Z,398.77
2022-08-26T00:33:14.051Z,398.79
2022-08-26T00:38:21.291Z,398.75
2022-08-26T00:43:28.492Z,397.97
2022-08-26T00:48:35.691Z,398.68
2022-08-26T00:53:42.848Z,398.38
2022-08-26T00:58:50.004Z,398.35
2022-08-26T01:03:57.219Z,398.63
2022-08-26T01:09:04.430Z,398.69
2022-08-26T01:14:11.602Z,399.03
2022-08-26T01:19:18.765Z,398.97
2022-08-26T01:24:25.983Z,399.78
2022-08-26T01:29:33.154Z,399.01
2022-08-26T01:34:40.349Z,399.45
2022-08-26T01:39:47.590Z,399.70
2022-08-26T01:44:54.706Z,399.36
2022-08-26T01:50:02.831Z,399.31
2022-08-26T01:55:09.112Z,399.14
2022-08-26T02:00:16.316Z,399.07
2022-08-26T02:05:23.450Z,398.86
2022-08-26T02:10:30.642Z,398.78
2022-08-26T02:15:37.849Z,398.68
2022-08-26T02:20:45.105Z,398.87
2022-08-26T02:25:55.102Z,399.19
2022-08-26T02:31:02.706Z,398.97
2022-08-26T02:36:09.487Z,399.13
2022-08-26T02:41:16.739Z,398.48
2022-08-26T02:46:27.868Z,398.73
2022-08-26T02:51:31.264Z,399.14
2022-08-26T02:56:38.443Z,399.04
2022-08-26T03:01:45.680Z,398.93
2022-08-26T03:06:53.139Z,399.21
2022-08-26T03:12:00.183Z,399.04
2022-08-26T03:17:07.370Z,399.16
2022-08-26T03:22:14.705Z,399.11
2022-08-26T03:27:21.856Z,399.28
2022-08-26T03:32:29.043Z,399.32
2022-08-26T03:37:36.289Z,399.39
2022-08-26T03:42:45.420Z,399.21
2022-08-26T03:47:51.754Z,399.83
2022-08-26T03:52:58.986Z,399.41
2022-08-26T03:58:06.258Z,399.27
2022-08-26T04:03:18.632Z,399.25
2022-08-26T04:08:22.670Z,398.96
2022-08-26T04:13:29.937Z,399.39
2022-08-26T04:18:37.370Z,399.66
2022-08-26T04:23:47.511Z,400.15
2022-08-26T04:28:53.136Z,399.55
2022-08-26T04:34:00.367Z,400.01
2022-08-26T04:39:07.628Z,399.90
2022-08-26T04:44:14.921Z,399.70
2022-08-26T04:49:22.185Z,399.22
2022-08-26T04:54:29.416Z,399.91
2022-08-26T04:59:39.336Z,399.47
2022-08-26T05:04:43.817Z,399.35
2022-08-26T05:09:51.081Z,398.88
2022-08-26T05:14:58.383Z,398.63
2022-08-26T05:20:05.536Z,398.27
2022-08-26T05:25:12.739Z,398.40
2022-08-26T05:30:19.906Z,397.79
2022-08-26T05:35:27.104Z,398.02
2022-08-26T05:40:34.345Z,397.63
2022-08-26T05:45:45.820Z,397.75
2022-08-26T05:50:48.699Z,397.91
2022-08-26T05:55:55.848Z,397.59
2022-08-26T06:01:03.225Z,397.62
2022-08-26T06:06:10.594Z,397.39
2022-08-26T06:11:18.600Z,396.87
2022-08-26T06:16:24.897Z,396.72
2022-08-26T06:21:32.070Z,396.68
2022-08-26T06:26:39.247Z,396.74
2022-08-26T06:31:46.502Z,396.84
2022-08-26T06:36:53.665Z,396.69
2022-08-26T06:42:00.912Z,396.28
2022-08-26T06:47:08.166Z,396.54
2022-08-26T06:52:17.982Z,396.19
2022-08-26T06:57:22.668Z,396.11
2022-08-26T07:02:29.906Z,396.05
2022-08-26T07:07:37.107Z,395.68
2022-08-26T07:12:47.266Z,396.18
2022-08-26T07:17:51.461Z,395.73
2022-08-26T07:22:58.656Z,395.30
2022-08-26T07:28:05.861Z,395.41
2022-08-26T07:33:13.106Z,395.34
2022-08-26T07:38:20.306Z,395.75
2022-08-26T07:43:27.535Z,395.81
2022-08-26T07:48:34.788Z,395.98
2022-08-26T07:53:42.014Z,396.21
2022-08-26T07:58:51.885Z,395.98
2022-08-26T08:03:56.528Z,396.44
2022-08-26T08:09:03.717Z,396.08
2022-08-26T08:14:11.899Z,396.36
2022-08-26T08:19:18.195Z,396.54
2022-08-26T08:24:25.372Z,396.58
2022-08-26T08:29:32.598Z,397.13
2022-08-26T08:39:49.214Z,397.62
2022-08-26T08:44:56.227Z,397.45
2022-08-26T08:50:04.035Z,397.81
2022-08-26T08:55:14.826Z,397.89
2022-08-26T09:00:18.447Z,397.94
2022-08-26T09:05:25.654Z,398.40
2022-08-26T09:10:32.983Z,398.07
2022-08-26T09:15:40.146Z,398.51
2022-08-26T09:20:47.320Z,398.56
2022-08-26T09:31:01.755Z,398.47
2022-08-26T09:36:08.911Z,398.44
2022-08-26T09:41:16.125Z,398.59
2022-08-26T09:46:23.402Z,399.03
2022-08-26T09:51:30.567Z,399.09
2022-08-26T09:56:37.737Z,399.59
2022-08-26T10:01:45.354Z,400.33
2022-08-26T10:06:52.120Z,401.19
2022-08-26T10:11:59.309Z,401.46
2022-08-26T10:17:06.955Z,402.18
2022-08-26T10:22:13.676Z,402.68
2022-08-26T10:27:20.845Z,403.15
2022-08-26T10:32:28.071Z,403.78
2022-08-26T10:37:35.226Z,403.97
2022-08-26T10:42:42.408Z,404.41
2022-08-26T10:47:49.639Z,405.14
2022-08-26T10:52:56.867Z,404.95
2022-08-26T10:58:05.010Z,405.18
2022-08-26T11:03:21.644Z,405.82
2022-08-26T11:08:18.521Z,406.19
2022-08-26T11:13:25.766Z,406.14
2022-08-26T11:18:32.994Z,406.73
2022-08-26T11:23:40.363Z,407.89
2022-08-26T11:28:47.374Z,408.64
2022-08-26T11:33:54.571Z,408.32
2022-08-26T11:39:02.780Z,408.73
2022-08-26T11:44:09.041Z,409.57
2022-08-26T11:49:16.202Z,410.24
2022-08-26T11:54:32.901Z,410.86
2022-08-26T11:59:30.728Z,410.63
2022-08-26T12:04:38.019Z,410.83
2022-08-26T12:09:47.455Z,411.37
2022-08-26T12:14:54.664Z,411.83
2022-08-26T12:20:01.855Z,412.18
2022-08-26T12:25:09.012Z,412.92
2022-08-26T12:30:17.982Z,413.25
2022-08-26T12:35:23.403Z,412.11
2022-08-26T12:40:30.710Z,412.82
2022-08-26T12:45:37.789Z,412.91
2022-08-26T12:50:47.046Z,413.10
2022-08-26T12:55:54.255Z,413.35
2022-08-26T13:01:01.661Z,413.66
2022-08-26T13:06:08.717Z,413.87
2022-08-26T13:11:15.960Z,414.57
2022-08-26T13:16:23.274Z,414.44
2022-08-26T13:21:32.034Z,415.01
2022-08-26T13:26:37.582Z,415.47
2022-08-26T13:31:45.102Z,416.29
2022-08-26T13:36:52.050Z,416.38
2022-08-26T13:41:59.317Z,416.73
2022-08-26T13:47:06.512Z,418.12
2022-08-26T13:52:13.686Z,418.60
2022-08-26T13:57:21.566Z,419.38
2022-08-26T14:02:28.747Z,419.56
2022-08-26T14:07:35.944Z,419.70
2022-08-26T14:12:43.124Z,420.04
2022-08-26T14:17:50.321Z,419.98
2022-08-26T14:23:13.096Z,419.61
2022-08-26T14:28:04.722Z,420.15
2022-08-26T14:33:11.972Z,420.03
2022-08-26T14:38:19.156Z,419.79
2022-08-26T14:43:26.330Z,420.77
2022-08-26T14:48:33.519Z,419.96
2022-08-26T14:53:40.798Z,419.99
2022-08-26T14:58:48.017Z,419.63
2022-08-26T15:03:55.192Z,419.91
2022-08-26T15:09:02.519Z,419.80
2022-08-26T15:14:19.066Z,419.55
2022-08-26T15:19:16.828Z,419.98
2022-08-26T15:24:24.153Z,420.19
2022-08-26T15:29:31.405Z,420.81
2022-08-26T15:34:38.615Z,421.07
2022-08-26T15:39:45.882Z,421.40
2022-08-26T15:44:53.066Z,421.24
2022-08-26T15:50:01.376Z,420.73
2022-08-26T15:55:08.647Z,420.90
2022-08-26T16:00:15.838Z,420.91
2022-08-26T16:05:23.202Z,421.53
2022-08-26T16:10:30.418Z,421.44
2022-08-26T16:15:37.757Z,421.39
2022-08-26T16:20:44.894Z,420.80
2022-08-26T16:25:52.176Z,420.91
2022-08-26T16:30:59.491Z,420.98
2022-08-26T16:36:06.621Z,420.23
2022-08-26T16:41:13.799Z,419.51
2022-08-26T16:46:21.050Z,419.15
2022-08-26T16:51:28.279Z,418.72
2022-08-26T16:56:35.459Z,418.40
2022-08-26T17:01:42.691Z,419.00
2022-08-26T17:06:49.829Z,419.64
2022-08-26T17:11:57.021Z,420.12
2022-08-26T17:17:04.305Z,418.29
2022-08-26T17:22:11.503Z,418.74
2022-08-26T17:27:18.754Z,418.82
2022-08-26T17:32:26.553Z,418.09
2022-08-26T17:37:33.735Z,417.67
2022-08-26T17:42:41.048Z,416.43
2022-08-26T17:47:48.210Z,415.63
2022-08-26T17:52:55.410Z,415.31
2022-08-26T17:58:04.004Z,414.31
2022-08-26T18:03:10.016Z,413.31
2022-08-26T18:08:17.046Z,412.36
2022-08-26T18:13:24.229Z,410.61
2022-08-26T18:18:31.412Z,407.06
2022-08-26T18:23:41.718Z,406.06
2022-08-26T18:28:49.002Z,406.55
2022-08-26T18:33:56.181Z,406.28
2022-08-26T18:39:03.355Z,407.14
2022-08-26T18:44:13.669Z,405.03
2022-08-26T18:49:17.774Z,402.36
2022-08-26T18:54:25.075Z,403.17
2022-08-26T18:59:32.383Z,402.21
2022-08-26T19:04:39.794Z,399.18
2022-08-26T19:09:47.444Z,395.31
2022-08-26T19:14:54.825Z,394.07
2022-08-26T19:20:02.323Z,394.66
2022-08-26T19:25:09.939Z,396.05
2022-08-26T19:30:17.560Z,396.66
2022-08-26T19:35:25.088Z,396.59
2022-08-26T19:40:32.737Z,397.08
2022-08-26T19:45:40.187Z,397.14
2022-08-26T19:50:47.686Z,396.35
2022-08-26T19:55:55.198Z,395.17
2022-08-26T20:01:02.869Z,393.37
2022-08-26T20:06:10.431Z,391.68
2022-08-26T20:11:17.832Z,391.37
2022-08-26T20:16:25.336Z,391.84
2022-08-26T20:21:32.962Z,391.56
2022-08-26T20:26:40.474Z,391.15
2022-08-26T20:31:47.909Z,391.28
2022-08-26T20:36:55.730Z,390.89
2022-08-26T20:42:02.954Z,391.25
2022-08-26T20:47:10.231Z,390.72
2022-08-26T20:52:17.446Z,390.60
2022-08-26T20:57:24.706Z,390.89
2022-08-26T21:02:31.987Z,390.99
2022-08-26T21:07:39.224Z,391.31
2022-08-26T21:12:46.458Z,390.59
2022-08-26T21:17:53.649Z,390.70
2022-08-26T21:23:00.826Z,389.57
2022-08-26T21:28:08.126Z,389.93
2022-08-26T21:33:15.293Z,389.90
2022-08-26T21:38:22.476Z,390.09
2022-08-26T21:43:35.517Z,390.15
2022-08-26T21:48:36.867Z,390.02
2022-08-26T21:53:44.141Z,389.56
2022-08-26T21:58:52.469Z,389.61
2022-08-26T22:03:58.506Z,389.32
2022-08-26T22:09:05.696Z,389.60
2022-08-26T22:14:12.979Z,389.47
2022-08-26T22:19:20.273Z,388.83
2022-08-26T22:24:29.074Z,388.64
2022-08-26T22:29:36.368Z,388.29
2022-08-26T22:34:43.647Z,388.01
2022-08-26T22:39:50.941Z,388.11
2022-08-26T22:44:58.108Z,388.28
2022-08-26T22:50:05.326Z,388.23
2022-08-26T22:55:12.573Z,388.16
2022-08-26T23:00:19.768Z,388.30
2022-08-26T23:05:26.995Z,388.26
2022-08-26T23:10:34.229Z,388.72
2022-08-26T23:15:41.414Z,389.13
2022-08-26T23:20:49.307Z,389.32
2022-08-26T23:25:56.581Z,388.88
2022-08-26T23:31:03.773Z,388.60
2022-08-26T23:36:14.628Z,389.01
2022-08-26T23:41:18.141Z,388.92
2022-08-26T23:46:25.338Z,389.00
2022-08-26T23:51:32.617Z,389.61
2022-08-26T23:56:39.818Z,389.97
